Saint Petersburg, FL

2:09 AM EDT on August 21, 2014 (GMT -0400)
Municipal Marina | Change Station
CLOSE
Current Station
Personal Weather Station
Location: St. Petersburg, FL
Elevation: 0 ft
Nearby Weather Stations

Elev 0 ft 27.77 °N, 82.63 °W | Updated 3 minutes ago

Clear
Clear
85.6 °F
Feels Like 95 °F
N
-
Wind Variable Wind from North

Today
High -- | Low -- °F
--% Chance of Precip.
Yesterday
High -- | Low -- °F
Precip. -- in
7:04 AM 8:02 PM
Waning Crescent, 16% visible
Pressure 30.08 in
Visibility 10.0 miles
Clouds Clear
Heat Index 95 °F
Dew Point 76 °F
Humidity 72%
Rainfall -999.00 in
Snow Depth Not available.
UV 0 out of 12
Pollen 4.20 out of 12
Air Quality Not available.
Flu Activity Not available.
METAR KSPG 210553Z 00000KT 10SM CLR 29/24 A3008 RMK AO2 SLP185 T02890244 10311 20289 58002

More Conditions Fewer Conditions

Pressure 30.08 in
Visibility 10.0 miles
Clouds Clear
Heat Index 95 °F
Dew Point 76 °F
Humidity 72%
Rainfall -999.00 in
Snow Depth Not available.
UV 0 out of 12
Pollen 4.20 out of 12
Air Quality Not available.
Flu Activity Not available.
METAR KSPG 210553Z 00000KT 10SM CLR 29/24 A3008 RMK AO2 SLP185 T02890244 10311 20289 58002

More Conditions Fewer Conditions

10-Day Weather Forecast

Almanac

Astronomy

Aug. 21, 2014 Rise Set
Actual Time 7:04 AM EDT 8:02 PM EDT
Civil Twilight 6:39 AM EDT 8:27 PM EDT
Nautical Twilight 6:11 AM EDT 8:55 PM EDT
Astronomical Twilight 5:41 AM EDT 9:25 PM EDT
Moon 3:41 AM EDT 5:23 PM EDT
Length of Visible Light 13h 47m
Length of Day
12h 58m
Tomorrow will be 1m 30s shorter.
Waning Crescent, 16% of the Moon is Illuminated
Today
Waning Crescent
Aug 25
New
Sep 2
First Quarter
Sep 8
Full
Sep 15
Last Quarter

Today's Extremes

State Highs State Lows

Community

WunderPhotos

Upload Photos

1,745,858 photos uploaded!

Nearby

Air Quality

  Air Quality AQ Index Pollutant
Thursday Good
PM2.5
Thursday Good
OZONE

Snow Depth

Station Depth Elevation
No new snow has been reported.

Earthquake Activity

City Distance Mag. Time & Date
No recent earthquake activity has been reported nearby.
Minimum magnitude displayed is 2.5.

Coastal Water Temperatures

Place Temperature
St Petersburg, FL 91.0 °F
Old Port Tampa, FL 89.1 °F
McKay Bay Entrance, FL 89.1 °F

Nearby Weather Stations